Terminal Aerodrome Forecast
Issued by NWS

Home | Current Version | Previous Version | Text Only | Print | Product List | Glossary On
Versions: 1 2 3 4 5 6 7 8 9 10 11 12 13 14 15 16 17 18 19 20 21 22 23
000
FTUS44 KMAF 052300
TAFINK
TAF
KINK 052323Z 0600/0624 27008KT P6SM SCT100
     FM060800 VRB04KT P6SM SCT020
     FM061400 15008KT P6SM SCT250
     FM061600 21010KT P6SM SCT250=

USA.gov is the U.S. government's official web portal to all federal, state and local government web resources and services.